Time;durP1;ratioP1;P1;durP2;ratioP2;P2;SDS_P1;SDS_P2;PMS_P1;PMS_P2;Temp;Humidity;BMP_temperature;BMP_pressure;BME280_temperature;BME280_humidity;BME280_pressure;Samples;Min_cycle;Max_cycle;Signal;HPM_P1;HPM_P2
2023/06/03 00:01:56;;;;;;;15.40;6.63;;;;;;;-142.57;60.03;115900.28;4884146;29;20037;-81
2023/06/03 00:04:22;;;;;;;12.15;6.80;;;;;;;-142.57;60.71;115900.28;4882631;29;20037;-83
2023/06/03 00:06:47;;;;;;;13.25;7.22;;;;;;;-142.57;61.16;115900.28;4883536;29;20376;-83
2023/06/03 00:09:14;;;;;;;12.45;6.82;;;;;;;-142.57;61.09;115900.28;4883449;29;20041;-82
2023/06/03 00:11:40;;;;;;;11.80;6.30;;;;;;;-142.57;61.05;115900.28;4891427;29;20041;-83
2023/06/03 00:14:05;;;;;;;15.30;6.70;;;;;;;-142.57;60.81;115900.28;4901762;29;20055;-83
2023/06/03 00:16:34;;;;;;;14.90;6.85;;;;;;;-142.57;61.12;115900.28;4901782;29;20048;-81
2023/06/03 00:19:00;;;;;;;11.40;7.13;;;;;;;-142.57;61.21;115900.28;4901843;29;20041;-81
2023/06/03 00:21:27;;;;;;;10.75;6.88;;;;;;;-142.57;62.42;115900.28;4883932;29;20049;-81
2023/06/03 00:23:53;;;;;;;10.10;6.53;;;;;;;-142.57;62.83;115900.28;4901526;29;20045;-82
2023/06/03 00:26:20;;;;;;;13.48;7.35;;;;;;;-142.57;64.79;115900.28;4900905;29;20029;-81
2023/06/03 00:28:52;;;;;;;16.27;8.27;;;;;;;-142.57;65.65;115900.28;4900904;29;20045;-80
2023/06/03 00:31:18;;;;;;;12.23;7.43;;;;;;;-142.57;66.30;115900.28;4901639;29;20029;-83
2023/06/03 00:33:44;;;;;;;12.90;8.00;;;;;;;-142.57;66.32;115900.28;4900190;29;20037;-82
2023/06/03 00:36:09;;;;;;;24.80;7.85;;;;;;;-142.57;67.36;115900.28;4900933;29;20067;-81
2023/06/03 00:38:35;;;;;;;12.90;7.53;;;;;;;-142.57;68.55;115900.28;4901142;29;20485;-83
2023/06/03 00:41:01;;;;;;;16.83;7.70;;;;;;;-142.57;68.90;115900.28;4874515;29;20052;-82
2023/06/03 00:43:26;;;;;;;22.80;8.63;;;;;;;-142.57;68.38;115900.28;4891992;29;20041;-84
2023/06/03 00:45:53;;;;;;;15.15;8.70;;;;;;;-142.57;68.85;115900.28;4893798;29;20041;-81
2023/06/03 00:48:19;;;;;;;13.50;9.30;;;;;;;-142.57;68.71;115900.28;4889505;29;20056;-81
2023/06/03 00:50:45;;;;;;;16.38;9.05;;;;;;;-142.57;69.33;115900.28;4883111;29;20072;-82
2023/06/03 00:53:10;;;;;;;12.88;8.52;;;;;;;-142.57;69.52;115900.28;4883130;29;20064;-81
2023/06/03 00:55:37;;;;;;;11.73;8.43;;;;;;;-142.57;70.05;115900.28;4899773;29;20070;-81
2023/06/03 00:58:03;;;;;;;17.67;8.23;;;;;;;-142.57;71.01;115900.28;4900165;29;20048;-81
2023/06/03 01:00:28;;;;;;;18.10;9.02;;;;;;;-142.57;70.61;115900.28;4867013;29;20041;-81
2023/06/03 01:02:55;;;;;;;19.48;8.77;;;;;;;-142.57;71.21;115900.28;4883097;29;20041;-81
2023/06/03 01:05:22;;;;;;;13.00;8.45;;;;;;;-142.57;72.59;115900.28;4899675;29;20044;-83
2023/06/03 01:08:04;;;;;;;13.32;7.97;;;;;;;-142.57;72.97;115900.28;4882710;29;20162;-83
2023/06/03 01:10:29;;;;;;;8.43;5.78;;;;;;;-142.57;72.83;115900.28;4882719;29;20029;-83
2023/06/03 01:13:07;;;;;;;12.25;7.95;;;;;;;-142.57;73.55;115900.28;4864989;29;20049;-83
2023/06/03 01:15:35;;;;;;;13.38;7.43;;;;;;;-142.57;74.53;115900.28;4864710;29;20056;-83
2023/06/03 01:18:05;;;;;;;13.43;7.45;;;;;;;-142.57;75.22;115900.28;4864919;29;20071;-81
2023/06/03 01:20:32;;;;;;;12.38;7.88;;;;;;;-142.57;75.59;115900.28;4849329;29;20511;-81
2023/06/03 01:23:11;;;;;;;17.08;8.75;;;;;;;-142.57;75.95;115900.28;4881407;29;20057;-82
2023/06/03 01:25:40;;;;;;;15.57;8.10;;;;;;;-142.57;76.38;115900.28;4864466;29;20053;-81
2023/06/03 01:28:06;;;;;;;13.13;8.05;;;;;;;-142.57;76.25;115900.28;4864416;29;20072;-81
2023/06/03 01:30:31;;;;;;;12.40;8.30;;;;;;;-142.57;77.41;115900.28;4864319;29;20164;-82
2023/06/03 01:32:57;;;;;;;12.77;9.40;;;;;;;-142.57;78.27;115900.28;4863640;29;20045;-81
2023/06/03 01:35:23;;;;;;;17.35;10.00;;;;;;;-142.57;79.82;115900.28;4880795;29;20726;-82
2023/06/03 01:37:49;;;;;;;15.32;9.77;;;;;;;-142.57;81.59;115900.28;4880672;29;20029;-82
2023/06/03 01:40:16;;;;;;;16.67;10.30;;;;;;;-142.57;84.54;115900.28;4864126;29;20037;-81
2023/06/03 01:42:42;;;;;;;19.50;11.27;;;;;;;-142.57;85.54;115900.28;4863996;29;20044;-82
2023/06/03 01:45:08;;;;;;;19.98;11.82;;;;;;;-142.57;87.44;115900.28;4848044;29;20479;-81
2023/06/03 01:47:34;;;;;;;20.08;11.77;;;;;;;-142.57;89.35;115900.28;4880749;29;20040;-83
2023/06/03 01:49:59;;;;;;;17.30;10.68;;;;;;;-142.57;92.02;115900.28;4880543;29;20036;-80
2023/06/03 01:52:27;;;;;;;20.23;12.07;;;;;;;-142.57;92.97;115900.28;4863987;29;20036;-81
2023/06/03 01:54:53;;;;;;;18.17;11.02;;;;;;;-142.57;95.57;115900.28;4863085;29;20037;-81
2023/06/03 01:57:18;;;;;;;16.38;11.23;;;;;;;-142.57;96.21;115900.28;4880090;29;20040;-80
2023/06/03 01:59:44;;;;;;;17.13;12.32;;;;;;;-142.57;97.36;115900.28;4863265;29;20041;-82
2023/06/03 02:02:10;;;;;;;17.48;12.07;;;;;;;-142.57;98.97;115900.28;4879940;29;20076;-81
2023/06/03 02:04:35;;;;;;;16.58;12.30;;;;;;;-142.57;100.00;115900.28;4863524;29;20409;-81
2023/06/03 02:07:01;;;;;;;18.10;12.00;;;;;;;-142.57;100.00;115900.28;4880454;29;20387;-80
2023/06/03 02:09:29;;;;;;;15.77;11.43;;;;;;;-142.57;100.00;115900.28;4868077;29;20037;-80
2023/06/03 02:11:56;;;;;;;18.83;11.35;;;;;;;-142.57;100.00;115900.28;4874191;29;20052;-81
2023/06/03 02:14:22;;;;;;;16.88;12.23;;;;;;;-142.57;100.00;115900.28;4888995;29;20479;-82
2023/06/03 02:16:48;;;;;;;14.68;11.43;;;;;;;-142.57;100.00;115900.28;4880516;29;20037;-83
2023/06/03 02:19:19;;;;;;;19.90;12.10;;;;;;;-142.57;100.00;115900.28;4847965;29;20089;-79
2023/06/03 02:21:46;;;;;;;14.10;10.55;;;;;;;-142.57;100.00;115900.28;4879866;29;20052;-81
2023/06/03 02:24:14;;;;;;;14.77;11.00;;;;;;;-142.57;100.00;115900.28;4879659;29;20029;-80
2023/06/03 02:26:50;;;;;;;19.15;10.70;;;;;;;-142.57;100.00;115900.28;4863011;29;20627;-82
2023/06/03 02:29:20;;;;;;;14.63;10.25;;;;;;;-142.57;100.00;115900.28;4862712;29;20044;-84
2023/06/03 02:31:46;;;;;;;16.15;10.27;;;;;;;-142.57;100.00;115900.28;4863212;29;20033;-83
2023/06/03 02:34:12;;;;;;;14.43;10.63;;;;;;;-142.57;100.00;115900.28;4880239;29;20461;-82
2023/06/03 02:36:38;;;;;;;14.63;9.35;;;;;;;-142.57;100.00;115900.28;4863212;29;20080;-82
2023/06/03 02:39:05;;;;;;;15.60;9.63;;;;;;;-142.57;100.00;115900.28;4862972;29;20509;-81
2023/06/03 02:41:31;;;;;;;12.93;9.25;;;;;;;-142.57;100.00;115900.28;4880286;29;20045;-83
2023/06/03 02:43:56;;;;;;;13.93;9.35;;;;;;;-142.57;100.00;115900.28;4884904;29;20100;-82
2023/06/03 02:46:22;;;;;;;14.73;9.80;;;;;;;-142.57;100.00;115900.28;4895653;29;20056;-83
2023/06/03 02:48:47;;;;;;;13.25;9.27;;;;;;;-142.57;100.00;115900.28;4880042;29;20037;-83
2023/06/03 02:51:13;;;;;;;12.15;9.00;;;;;;;-142.57;100.00;115900.28;4879722;29;20084;-82
2023/06/03 02:53:39;;;;;;;10.80;8.70;;;;;;;-142.57;100.00;115900.28;4863024;29;20049;-83
2023/06/03 02:56:04;;;;;;;13.50;8.73;;;;;;;-142.57;100.00;115900.28;4879313;29;20041;-82
2023/06/03 02:58:30;;;;;;;15.07;8.75;;;;;;;-142.57;100.00;115900.28;4862979;29;20565;-81
2023/06/03 03:00:55;;;;;;;14.63;9.88;;;;;;;-142.57;100.00;115900.28;4879513;29;20033;-82
2023/06/03 03:03:21;;;;;;;16.70;11.18;;;;;;;-142.57;100.00;115900.28;4862606;29;20029;-82
2023/06/03 03:05:48;;;;;;;13.75;10.63;;;;;;;-142.57;100.00;115900.28;4879302;29;20085;-82
2023/06/03 03:08:13;;;;;;;17.40;12.65;;;;;;;-142.57;100.00;115900.28;4862345;29;20085;-81
2023/06/03 03:10:42;;;;;;;19.67;13.55;;;;;;;-142.57;100.00;115900.28;4893433;29;20124;-82
2023/06/03 03:13:08;;;;;;;16.13;12.70;;;;;;;-142.57;100.00;115900.28;4862251;29;20029;-82
2023/06/03 03:15:33;;;;;;;13.80;10.77;;;;;;;-142.57;100.00;115900.28;4878472;29;20052;-84
2023/06/03 03:18:00;;;;;;;13.85;9.93;;;;;;;-142.57;100.00;115900.28;4878340;29;20033;-81
2023/06/03 03:20:28;;;;;;;11.52;8.38;;;;;;;-142.57;100.00;115900.28;4878989;29;20063;-82
2023/06/03 03:22:54;;;;;;;14.75;9.43;;;;;;;-142.57;100.00;115900.28;4862217;29;20041;-82
2023/06/03 03:25:21;;;;;;;11.20;8.10;;;;;;;-142.57;100.00;115900.28;4861803;29;20309;-81
2023/06/03 03:27:47;;;;;;;13.82;7.90;;;;;;;-142.57;100.00;115900.28;4893127;29;20065;-81
2023/06/03 03:30:13;;;;;;;10.65;7.30;;;;;;;-142.57;100.00;115900.28;4862285;29;20041;-82
2023/06/03 03:32:40;;;;;;;14.60;8.00;;;;;;;-142.57;100.00;115900.28;4862446;29;20517;-81
2023/06/03 03:35:12;;;;;;;14.57;9.00;;;;;;;-142.57;100.00;115900.28;4864955;29;20048;-82
2023/06/03 03:37:38;;;;;;;8.02;5.70;;;;;;;-142.57;100.00;115900.28;4897074;29;20093;-81
2023/06/03 03:40:27;;;;;;;10.27;7.60;;;;;;;-142.57;100.00;115900.28;4865887;29;20096;-81
2023/06/03 03:42:55;;;;;;;9.13;7.60;;;;;;;-142.57;100.00;115900.28;4866042;29;20047;-82
2023/06/03 03:45:33;;;;;;;11.75;8.52;;;;;;;-142.57;100.00;115900.28;4865645;29;20041;-81
2023/06/03 03:48:13;;;;;;;9.52;7.30;;;;;;;-142.57;100.00;115900.28;4882584;29;20068;-82
2023/06/03 03:50:49;;;;;;;10.45;7.78;;;;;;;-142.57;100.00;115900.28;4882537;29;20037;-81
2023/06/03 03:53:30;;;;;;;10.13;7.80;;;;;;;-142.57;100.00;115900.28;4865631;29;20079;-83
2023/06/03 03:55:57;;;;;;;12.48;7.10;;;;;;;-142.57;100.00;115900.28;4865794;29;20148;-82
2023/06/03 03:58:28;;;;;;;14.10;7.75;;;;;;;-142.57;100.00;115900.28;4882312;29;20029;-84
2023/06/03 04:01:09;;;;;;;12.82;8.27;;;;;;;-142.57;100.00;115900.28;4865319;29;20398;-81
2023/06/03 04:03:42;;;;;;;12.48;8.70;;;;;;;-142.57;100.00;115900.28;4866055;29;20467;-84
2023/06/03 04:06:09;;;;;;;16.38;10.70;;;;;;;-142.57;100.00;115900.28;4882736;29;20029;-82
2023/06/03 04:08:45;;;;;;;23.20;10.63;;;;;;;-142.57;100.00;115900.28;4882465;29;20032;-83
2023/06/03 04:11:17;;;;;;;17.58;10.75;;;;;;;-142.57;100.00;115900.28;4882706;29;20153;-83
2023/06/03 04:13:42;;;;;;;16.95;12.18;;;;;;;-142.57;100.00;115900.28;4896907;29;20041;-83
2023/06/03 04:16:11;;;;;;;20.90;12.63;;;;;;;-142.57;100.00;115900.28;4850904;29;20127;-82
2023/06/03 04:18:41;;;;;;;20.02;13.00;;;;;;;-142.57;100.00;115900.28;4865808;29;20037;-82
2023/06/03 04:21:19;;;;;;;19.88;13.85;;;;;;;-142.57;100.00;115900.28;4882365;29;20047;-84
2023/06/03 04:23:45;;;;;;;19.30;13.40;;;;;;;-142.57;100.00;115900.28;4865766;29;20037;-82
2023/06/03 04:26:14;;;;;;;20.42;14.32;;;;;;;-142.57;100.00;115900.28;4896856;29;20387;-82
2023/06/03 04:28:40;;;;;;;19.55;14.18;;;;;;;-142.57;100.00;115900.28;4865474;29;20111;-83
2023/06/03 04:31:06;;;;;;;23.25;13.90;;;;;;;-142.57;100.00;115900.28;4882676;29;20474;-82
2023/06/03 04:33:32;;;;;;;19.83;14.77;;;;;;;-142.57;100.00;115900.28;4882166;29;20084;-79
2023/06/03 04:35:58;;;;;;;21.73;14.95;;;;;;;-142.57;100.00;115900.28;4865488;29;20045;-79
2023/06/03 04:38:25;;;;;;;23.98;16.58;;;;;;;-142.57;100.00;115900.28;4882934;29;20367;-77
2023/06/03 04:40:51;;;;;;;23.55;15.85;;;;;;;-142.57;100.00;115900.28;4896130;29;20040;-78
2023/06/03 04:43:19;;;;;;;20.40;15.70;;;;;;;-142.57;100.00;115900.28;4849849;29;20557;-81
2023/06/03 04:45:49;;;;;;;26.02;16.55;;;;;;;-142.57;100.00;115900.28;4880723;29;20132;-81
2023/06/03 04:48:16;;;;;;;21.55;15.85;;;;;;;-142.57;100.00;115900.28;4896030;29;20123;-82
2023/06/03 04:50:44;;;;;;;25.85;17.50;;;;;;;-142.57;100.00;115900.28;4882115;29;20045;-80
2023/06/03 04:53:11;;;;;;;23.77;16.80;;;;;;;-142.57;100.00;115900.28;4881575;29;20151;-80
2023/06/03 04:55:45;;;;;;;21.67;16.88;;;;;;;-142.57;100.00;115900.28;4865095;29;20140;-80
2023/06/03 04:58:19;;;;;;;22.73;16.48;;;;;;;-142.57;100.00;115900.28;4865161;29;20132;-81
2023/06/03 05:00:48;;;;;;;27.42;17.92;;;;;;;-142.57;100.00;115900.28;4865689;29;20048;-82
2023/06/03 05:03:16;;;;;;;21.20;16.70;;;;;;;-142.57;100.00;115900.28;4881899;29;20048;-85
2023/06/03 05:05:42;;;;;;;21.63;16.83;;;;;;;-142.57;100.00;115900.28;4865829;29;20426;-83
2023/06/03 05:08:09;;;;;;;22.35;14.85;;;;;;;-142.57;100.00;115900.28;4865284;29;20052;-81
2023/06/03 05:10:35;;;;;;;28.33;16.73;;;;;;;-142.57;100.00;115900.28;4882056;29;20037;-81
2023/06/03 05:13:06;;;;;;;24.95;16.85;;;;;;;-142.57;100.00;115900.28;4896897;29;20088;-82
2023/06/03 05:15:33;;;;;;;22.55;16.95;;;;;;;-142.57;100.00;115900.28;4865158;29;20108;-83
2023/06/03 05:18:02;;;;;;;23.17;17.50;;;;;;;-142.57;100.00;115900.28;4865924;29;20029;-82
2023/06/03 05:20:31;;;;;;;23.33;16.15;;;;;;;-142.57;100.00;115900.28;4864451;29;20402;-82
2023/06/03 05:22:57;;;;;;;20.70;16.27;;;;;;;-142.57;100.00;115900.28;4867121;29;20057;-83
2023/06/03 05:25:23;;;;;;;26.83;15.18;;;;;;;-142.57;100.00;115900.28;4868018;29;20037;-84
2023/06/03 05:27:49;;;;;;;23.42;17.40;;;;;;;-142.57;100.00;115900.28;4865077;29;20040;-83
2023/06/03 05:30:15;;;;;;;24.48;17.95;;;;;;;-142.57;100.00;115900.28;4882168;29;20041;-81
2023/06/03 05:32:41;;;;;;;22.02;17.13;;;;;;;-142.57;100.00;115900.28;4866159;29;20093;-80
2023/06/03 05:35:09;;;;;;;31.98;18.92;;;;;;;-142.57;100.00;115900.28;4868350;29;20029;-82
2023/06/03 05:37:36;;;;;;;31.63;19.48;;;;;;;-142.57;100.00;115900.28;4874174;29;20052;-84
2023/06/03 05:40:02;;;;;;;24.75;18.50;;;;;;;-142.57;100.00;115900.28;4875493;29;20439;-85
2023/06/03 05:42:30;;;;;;;28.10;19.20;;;;;;;-142.57;100.00;115900.28;4870397;29;20068;-83
2023/06/03 05:44:55;;;;;;;31.65;19.75;;;;;;;-142.57;100.00;115900.28;4873686;29;20467;-84
2023/06/03 05:47:21;;;;;;;31.08;20.35;;;;;;;-142.57;100.00;115900.28;4889468;29;20544;-83
2023/06/03 05:49:46;;;;;;;30.73;18.90;;;;;;;-142.57;100.00;115900.28;4870490;29;20109;-84
2023/06/03 05:52:12;;;;;;;25.40;19.05;;;;;;;-142.57;100.00;115900.28;4887012;29;20135;-82
2023/06/03 05:54:39;;;;;;;26.35;17.23;;;;;;;-142.57;100.00;115900.28;4871288;29;20041;-83
2023/06/03 05:57:06;;;;;;;30.35;17.15;;;;;;;-142.57;100.00;115900.28;4873502;29;20043;-83
2023/06/03 05:59:32;;;;;;;24.33;15.57;;;;;;;-142.57;100.00;115900.28;4872596;29;20041;-85
2023/06/03 06:01:57;;;;;;;21.35;15.50;;;;;;;-142.57;100.00;115900.28;4886212;29;20045;-83
2023/06/03 06:04:23;;;;;;;22.38;14.32;;;;;;;-142.57;100.00;115900.28;4873896;29;20065;-85
2023/06/03 06:06:53;;;;;;;21.65;14.73;;;;;;;-142.57;100.00;115900.28;4877843;29;20037;-86
2023/06/03 06:09:19;;;;;;;23.85;14.30;;;;;;;-142.57;100.00;115900.28;4874725;29;20064;-87
2023/06/03 06:11:45;;;;;;;29.65;14.75;;;;;;;-142.57;100.00;115900.28;4890358;29;20502;-85
2023/06/03 06:14:12;;;;;;;18.83;12.98;;;;;;;-142.57;100.00;115900.28;4852731;29;20061;-84
2023/06/03 06:16:38;;;;;;;16.58;11.95;;;;;;;-142.57;100.00;115900.28;4870031;29;20092;-86
2023/06/03 06:19:04;;;;;;;16.92;12.15;;;;;;;-142.57;100.00;115900.28;4867001;29;20049;-87
2023/06/03 06:21:31;;;;;;;14.68;11.65;;;;;;;-142.57;100.00;115900.28;4856940;29;20090;-85
2023/06/03 06:23:57;;;;;;;16.63;11.05;;;;;;;-142.57;100.00;115900.28;4870307;29;20040;-85
2023/06/03 06:26:22;;;;;;;16.23;9.52;;;;;;;-142.57;100.00;115900.28;4856707;29;20041;-87
2023/06/03 06:28:52;;;;;;;14.57;10.02;;;;;;;-142.57;100.00;115900.28;4864641;29;20037;-86
2023/06/03 06:31:19;;;;;;;12.70;8.63;;;;;;;-142.57;100.00;115900.28;4876534;29;20037;-86
2023/06/03 06:33:49;;;;;;;12.20;8.40;;;;;;;-142.57;100.00;115900.28;4868488;29;20061;-82
2023/06/03 06:36:32;;;;;;;11.10;7.43;;;;;;;-142.57;100.00;115900.28;4859471;29;20048;-83
2023/06/03 06:39:01;;;;;;;10.40;6.90;;;;;;;-142.57;100.00;115900.28;4877717;29;20059;-86
2023/06/03 06:41:36;;;;;;;11.85;7.13;;;;;;;-142.57;100.00;115900.28;4868966;29;20041;-83
2023/06/03 06:44:06;;;;;;;8.93;6.63;;;;;;;-142.57;100.00;115900.28;4865406;29;20033;-85
2023/06/03 06:46:36;;;;;;;10.50;6.57;;;;;;;-142.57;100.00;115900.28;4852612;29;20029;-82
2023/06/03 06:49:02;;;;;;;10.73;6.88;;;;;;;-142.57;100.00;115900.28;4863258;29;20049;-83
2023/06/03 06:51:29;;;;;;;11.30;6.97;;;;;;;-142.57;100.00;115900.28;4861981;29;20021;-84
2023/06/03 06:54:03;;;;;;;15.40;7.43;;;;;;;-142.57;100.00;115900.28;4885766;29;20033;-84
2023/06/03 06:56:28;;;;;;;13.57;6.90;;;;;;;-142.57;100.00;115900.28;4856227;29;20061;-81
2023/06/03 06:58:59;;;;;;;8.30;6.25;;;;;;;-142.57;100.00;115900.28;4888515;29;20325;-82
2023/06/03 07:01:28;;;;;;;10.95;7.03;;;;;;;-142.57;100.00;115900.28;4895082;29;20084;-83
2023/06/03 07:03:55;;;;;;;10.35;7.50;;;;;;;-142.57;100.00;115900.28;4877000;29;20149;-83
2023/06/03 07:06:21;;;;;;;10.90;7.32;;;;;;;-142.57;100.00;115900.28;4882630;29;20021;-83
2023/06/03 07:08:54;;;;;;;10.20;7.43;;;;;;;-142.57;100.00;115900.28;4879840;29;20029;-80
2023/06/03 07:11:22;;;;;;;13.82;8.13;;;;;;;-142.57;100.00;115900.28;4881782;29;20037;-82
2023/06/03 07:13:53;;;;;;;12.52;8.35;;;;;;;-142.57;100.00;115900.28;4881948;29;20052;-81
2023/06/03 07:16:22;;;;;;;14.52;8.45;;;;;;;-142.57;100.00;115900.28;4899714;29;20025;-82
2023/06/03 07:18:50;;;;;;;11.13;8.85;;;;;;;-142.57;100.00;115900.28;4886152;29;20041;-82
2023/06/03 07:21:16;;;;;;;12.23;8.27;;;;;;;-142.57;100.00;115900.28;4870432;29;20101;-82
2023/06/03 07:23:47;;;;;;;11.30;8.10;;;;;;;-142.57;100.00;115900.28;4877189;29;20492;-83
2023/06/03 07:26:14;;;;;;;14.80;8.93;;;;;;;-142.57;100.00;115900.28;4861881;29;20041;-84
2023/06/03 07:28:39;;;;;;;11.07;8.00;;;;;;;-142.57;100.00;115900.28;4862234;29;20057;-84
2023/06/03 07:31:10;;;;;;;15.75;7.30;;;;;;;-142.57;100.00;115900.28;4844663;29;20574;-85
2023/06/03 07:33:51;;;;;;;9.63;7.20;;;;;;;-142.57;100.00;115900.28;4844720;29;20101;-86
2023/06/03 07:36:21;;;;;;;;;;;;;;;-142.57;100.00;115900.28;4870908;29;20045;-87
2023/06/03 07:39:14;;;;;;;10.32;7.28;;;;;;;-142.57;100.00;115900.28;4866194;29;19930;-88
2023/06/03 07:41:54;;;;;;;8.43;6.88;;;;;;;-142.57;100.00;115900.28;4882849;29;20048;-82
2023/06/03 07:44:54;;;;;;;9.48;6.10;;;;;;;-142.57;100.00;115900.28;4880255;29;20049;-83
2023/06/03 07:47:25;;;;;;;11.38;5.40;;;;;;;-142.57;100.00;115900.28;4859830;29;20074;-81
2023/06/03 07:49:51;;;;;;;11.45;6.22;;;;;;;-142.57;100.00;115900.28;4861231;29;20037;-82
2023/06/03 07:52:19;;;;;;;13.95;6.88;;;;;;;-142.57;100.00;115900.28;4875043;29;20043;-84
2023/06/03 07:54:45;;;;;;;10.57;6.60;;;;;;;-142.57;100.00;115900.28;4847669;29;20449;-87
2023/06/03 07:57:12;;;;;;;8.63;6.57;;;;;;;-142.57;100.00;115900.28;4857946;29;20037;-86
2023/06/03 07:59:38;;;;;;;9.52;6.10;;;;;;;-142.57;100.00;115900.28;4869898;29;20101;-88
2023/06/03 08:02:10;;;;;;;16.20;6.68;;;;;;;-142.57;100.00;115900.28;4865183;29;20051;-84
2023/06/03 08:04:35;;;;;;;11.70;6.68;;;;;;;-142.57;100.00;115900.28;4880326;29;20048;-83
2023/06/03 08:07:02;;;;;;;10.35;5.20;;;;;;;-142.57;100.00;115900.28;4864446;29;20037;-84
2023/06/03 08:09:30;;;;;;;7.50;5.15;;;;;;;-142.57;100.00;115900.28;4880002;29;20052;-84
2023/06/03 08:11:56;;;;;;;8.40;4.85;;;;;;;-142.57;100.00;115900.28;4863770;29;20063;-81
2023/06/03 08:14:23;;;;;;;11.82;4.28;;;;;;;-142.57;100.00;115900.28;4882775;29;20041;-82
2023/06/03 08:16:52;;;;;;;6.97;4.43;;;;;;;-142.57;100.00;115900.28;4870511;29;20032;-87
2023/06/03 08:19:18;;;;;;;8.70;4.97;;;;;;;-142.57;100.00;115900.28;4849830;29;20101;-83
2023/06/03 08:21:48;;;;;;;7.65;5.15;;;;;;;-142.57;100.00;115900.28;4854887;29;20037;-85
2023/06/03 08:24:13;;;;;;;9.90;4.85;;;;;;;-142.57;100.00;115900.28;4853955;29;20503;-85
2023/06/03 08:26:40;;;;;;;11.05;4.75;;;;;;;-142.57;100.00;115900.28;4882209;29;20048;-86
2023/06/03 08:29:06;;;;;;;7.03;4.80;;;;;;;-142.57;100.00;115900.28;4870293;29;20063;-84
2023/06/03 08:31:34;;;;;;;6.45;4.80;;;;;;;-142.57;100.00;115900.28;4864843;29;20033;-83
2023/06/03 08:34:03;;;;;;;7.75;4.45;;;;;;;-142.57;100.00;115900.28;4880895;29;20037;-85
2023/06/03 08:36:30;;;;;;;9.35;4.35;;;;;;;-142.57;100.00;115900.28;4884706;29;20062;-88
2023/06/03 08:38:56;;;;;;;6.57;4.72;;;;;;;-142.57;100.00;115900.28;4869377;29;20037;-85
2023/06/03 08:41:25;;;;;;;8.50;4.43;;;;;;;-142.57;100.00;115900.28;4866486;29;20052;-85
2023/06/03 08:43:58;;;;;;;6.90;4.47;;;;;;;-142.57;100.00;115900.28;4885529;29;20056;-86
2023/06/03 08:46:39;;;;;;;8.23;4.50;;;;;;;-142.57;100.00;115900.28;4871236;29;20033;-86
2023/06/03 08:49:08;;;;;;;8.93;4.50;;;;;;;-142.57;100.00;115900.28;4874463;29;20037;-86
2023/06/03 08:51:38;;;;;;;6.82;4.68;;;;;;;-142.57;100.00;115900.28;4866684;29;20219;-84
2023/06/03 08:54:17;;;;;;;11.55;5.30;;;;;;;-142.57;100.00;115900.28;4862905;29;20049;-86
2023/06/03 08:57:03;;;;;;;7.97;5.53;;;;;;;-142.57;100.00;115900.28;4862178;29;20036;-84
2023/06/03 08:59:30;;;;;;;7.55;5.05;;;;;;;-142.57;100.00;115900.28;4879810;29;20106;-85
2023/06/03 09:01:56;;;;;;;11.52;6.05;;;;;;;-142.57;100.00;115900.28;4865122;29;20236;-84
2023/06/03 09:04:22;;;;;;;7.35;5.35;;;;;;;-142.57;100.00;115900.28;4876142;29;20387;-85
2023/06/03 09:06:49;;;;;;;13.15;5.57;;;;;;;-142.57;100.00;115900.28;4848220;29;20040;-87
2023/06/03 09:09:16;;;;;;;9.38;5.70;;;;;;;-142.57;100.00;115900.28;4839047;29;20041;-87
2023/06/03 09:11:44;;;;;;;9.65;5.70;;;;;;;-142.57;100.00;115900.28;4864642;29;20064;-88
2023/06/03 09:14:10;;;;;;;7.75;5.45;;;;;;;-142.57;100.00;115900.28;4868639;29;20105;-85
2023/06/03 09:16:36;;;;;;;7.72;5.00;;;;;;;-142.57;100.00;115900.28;4879557;29;20065;-86
2023/06/03 09:19:04;;;;;;;7.20;5.05;;;;;;;-142.57;100.00;115900.28;4886646;29;20033;-82
2023/06/03 09:21:30;;;;;;;9.27;5.75;;;;;;;-142.57;100.00;115900.28;4864728;29;20037;-82
2023/06/03 09:23:55;;;;;;;6.32;4.50;;;;;;;-142.57;100.00;115900.28;4882792;29;20040;-87
2023/06/03 09:26:21;;;;;;;5.47;4.75;;;;;;;-142.57;100.00;115900.28;4882952;29;20041;-84
2023/06/03 09:28:47;;;;;;;7.93;4.20;;;;;;;-142.57;100.00;115900.28;4882288;29;20100;-86
2023/06/03 09:31:13;;;;;;;5.65;4.28;;;;;;;-142.57;100.00;115900.28;4864662;29;20039;-86
2023/06/03 09:33:41;;;;;;;8.27;4.18;;;;;;;-142.57;100.00;115900.28;4882030;29;20120;-86
2023/06/03 09:36:07;;;;;;;5.72;3.90;;;;;;;-142.57;100.00;115900.28;4882740;29;20089;-87
2023/06/03 09:38:50;;;;;;;5.57;4.30;;;;;;;-142.57;100.00;115900.28;4867704;29;20096;-83
2023/06/03 09:41:18;;;;;;;7.03;4.10;;;;;;;-142.57;100.00;115900.28;4867974;29;20060;-86
2023/06/03 09:44:08;;;;;;;8.43;4.05;;;;;;;-142.57;100.00;115900.28;4865793;29;20061;-88
2023/06/03 09:46:34;;;;;;;6.13;3.92;;;;;;;-142.57;100.00;115900.28;4864483;29;20077;-84
2023/06/03 09:49:12;;;;;;;6.90;5.20;;;;;;;-142.57;100.00;115900.28;4881199;29;20037;-82
2023/06/03 09:51:42;;;;;;;18.83;4.85;;;;;;;-142.57;100.00;115900.28;4881252;29;20090;-85
2023/06/03 09:54:14;;;;;;;9.88;5.72;;;;;;;-142.57;100.00;115900.28;4881523;29;20045;-82
2023/06/03 09:56:52;;;;;;;9.57;5.25;;;;;;;-142.57;100.00;115900.28;4883802;29;20045;-84
2023/06/03 09:59:21;;;;;;;9.32;4.00;;;;;;;-142.57;100.00;115900.28;4883217;29;20037;-85
2023/06/03 10:01:48;;;;;;;16.17;4.07;;;;;;;-142.57;100.00;115900.28;4869004;29;20088;-89
2023/06/03 10:04:20;;;;;;;17.00;4.88;;;;;;;-142.57;100.00;115900.28;4853031;29;20073;-82
2023/06/03 10:06:47;;;;;;;14.70;4.60;;;;;;;-142.57;100.00;115900.28;4886869;29;20045;-86
2023/06/03 10:09:25;;;;;;;6.25;4.15;;;;;;;-142.57;100.00;115900.28;4856104;29;20052;-85
2023/06/03 10:11:52;;;;;;;5.93;3.60;;;;;;;-142.57;99.43;115900.28;4887937;29;20528;-82
2023/06/03 10:14:25;;;;;;;6.43;3.50;;;;;;;-142.57;91.69;115900.28;4888134;29;20036;-83
2023/06/03 10:17:11;;;;;;;5.97;3.40;;;;;;;-142.57;90.85;115900.28;4885029;29;20045;-80
2023/06/03 10:19:41;;;;;;;5.07;4.30;;;;;;;-142.57;92.68;115900.28;4851547;29;20048;-81
2023/06/03 10:22:10;;;;;;;8.65;4.93;;;;;;;-142.57;95.06;115900.28;4883127;29;20128;-84
2023/06/03 10:24:43;;;;;;;7.68;4.80;;;;;;;-142.57;96.66;115900.28;4881768;29;20040;-83
2023/06/03 10:27:09;;;;;;;9.18;5.80;;;;;;;-142.57;100.00;115900.28;4886836;29;20033;-86
2023/06/03 10:29:35;;;;;;;8.55;6.45;;;;;;;-142.57;100.00;115900.28;4883479;29;20036;-82
2023/06/03 10:32:02;;;;;;;15.93;6.57;;;;;;;-142.57;100.00;115900.28;4882653;29;20040;-86
2023/06/03 10:34:29;;;;;;;8.55;6.47;;;;;;;-142.57;97.05;115900.28;4851297;29;20037;-86
2023/06/03 10:36:57;;;;;;;6.95;6.13;;;;;;;-142.57;96.76;115900.28;4867072;29;20041;-84
2023/06/03 10:39:26;;;;;;;8.50;6.20;;;;;;;-142.57;95.80;115900.28;4882616;29;20037;-81
2023/06/03 10:41:58;;;;;;;8.73;6.38;;;;;;;-142.57;97.39;115900.28;4882130;29;20048;-83
2023/06/03 10:44:23;;;;;;;8.23;6.15;;;;;;;-142.57;94.71;115900.28;4888170;29;20041;-83
2023/06/03 10:47:04;;;;;;;8.02;5.90;;;;;;;-142.57;93.48;115900.28;4882617;29;20041;-83
2023/06/03 10:49:52;;;;;;;21.83;5.72;;;;;;;-142.57;86.15;115900.28;4883894;29;20041;-82
2023/06/03 10:52:58;;;;;;;8.25;6.35;;;;;;;-142.57;82.20;115900.28;4867214;29;20112;-80
2023/06/03 10:55:50;;;;;;;7.03;4.60;;;;;;;-142.57;71.17;115900.28;4854650;29;20120;-80
2023/06/03 10:58:21;;;;;;;6.43;5.63;;;;;;;-142.57;77.71;115900.28;4883797;29;20041;-79
2023/06/03 11:00:57;;;;;;;5.85;4.60;;;;;;;-142.57;68.17;115900.28;4868035;29;20085;-80
2023/06/03 11:03:32;;;;;;;7.82;3.00;;;;;;;-142.57;64.08;115900.28;4866991;29;20041;-80